createdAt,value
2023-05-05T00:02:16.622Z,93.20
2023-05-05T00:04:46.020Z,93.30
2023-05-05T00:07:12.927Z,93.30
2023-05-05T00:09:39.843Z,93.30
2023-05-05T00:12:07.202Z,93.30
2023-05-05T00:14:38.668Z,93.50
2023-05-05T00:17:08.080Z,93.70
2023-05-05T00:19:35.064Z,93.80
2023-05-05T00:22:01.886Z,93.90
2023-05-05T00:24:28.696Z,94.00
2023-05-05T00:26:55.468Z,94.30
2023-05-05T00:29:22.248Z,94.10
2023-05-05T00:31:50.808Z,94.40
2023-05-05T00:34:17.675Z,94.30
2023-05-05T00:36:46.941Z,94.30
2023-05-05T00:39:14.152Z,94.30
2023-05-05T00:41:43.478Z,94.30
2023-05-05T00:44:10.252Z,94.30
2023-05-05T00:46:43.287Z,94.50
2023-05-05T00:49:12.188Z,94.50
2023-05-05T00:51:39.033Z,94.60
2023-05-05T00:54:05.894Z,94.80
2023-05-05T00:56:37.367Z,94.90
2023-05-05T00:59:06.761Z,94.90
2023-05-05T01:01:33.735Z,95.20
2023-05-05T01:04:03.043Z,95.00
2023-05-05T01:06:33.019Z,95.10
2023-05-05T01:09:04.278Z,95.00
2023-05-05T01:11:35.582Z,95.00
2023-05-05T01:14:05.673Z,95.10
2023-05-05T01:16:34.351Z,95.20
2023-05-05T01:19:18.952Z,95.50
2023-05-05T01:21:53.494Z,95.60
2023-05-05T01:24:22.632Z,95.40
2023-05-05T01:26:52.558Z,95.60
2023-05-05T01:29:28.593Z,95.60
2023-05-05T01:31:57.671Z,95.90
2023-05-05T01:34:28.750Z,95.70
2023-05-05T01:37:05.507Z,95.70
2023-05-05T01:39:33.854Z,95.90
2023-05-05T01:42:04.472Z,95.60
2023-05-05T01:44:34.652Z,95.80
2023-05-05T01:47:01.689Z,96.30
2023-05-05T01:49:28.765Z,96.20
2023-05-05T01:51:58.904Z,96.10
2023-05-05T01:54:26.210Z,96.10
2023-05-05T01:56:55.137Z,96.10
2023-05-05T01:59:24.378Z,96.00
2023-05-05T02:01:54.057Z,96.10
2023-05-05T02:04:22.861Z,96.00
2023-05-05T02:06:51.608Z,96.30
2023-05-05T02:09:22.124Z,96.10
2023-05-05T02:11:53.926Z,96.30
2023-05-05T02:14:21.889Z,96.20
2023-05-05T02:16:48.916Z,96.40
2023-05-05T02:19:16.058Z,96.20
2023-05-05T02:21:42.884Z,96.40
2023-05-05T02:24:12.229Z,96.30
2023-05-05T02:26:40.193Z,96.30
2023-05-05T02:29:27.265Z,96.40
2023-05-05T02:31:55.752Z,96.70
2023-05-05T02:34:27.759Z,96.50
2023-05-05T02:37:00.821Z,97.00
2023-05-05T02:39:32.237Z,96.70
2023-05-05T02:42:03.888Z,96.80
2023-05-05T02:44:32.925Z,96.90
2023-05-05T02:47:02.476Z,97.00
2023-05-05T02:49:30.126Z,97.10
2023-05-05T02:52:02.298Z,97.20
2023-05-05T02:54:33.847Z,97.30
2023-05-05T02:57:04.049Z,97.40
2023-05-05T02:59:42.980Z,97.40
2023-05-05T03:02:20.069Z,97.50
2023-05-05T03:04:49.297Z,97.70
2023-05-05T03:07:26.387Z,97.60
2023-05-05T03:10:03.231Z,97.70
2023-05-05T03:12:37.479Z,97.70
2023-05-05T03:15:22.217Z,97.70
2023-05-05T03:17:50.757Z,97.90
2023-05-05T03:20:17.808Z,97.90
2023-05-05T03:22:47.920Z,97.80
2023-05-05T03:25:18.039Z,97.80
2023-05-05T03:27:44.998Z,97.70
2023-05-05T03:30:14.763Z,97.80
2023-05-05T03:32:48.453Z,97.70
2023-05-05T03:35:15.840Z,97.90
2023-05-05T03:37:42.621Z,98.00
2023-05-05T03:40:10.581Z,98.00
2023-05-05T03:42:37.372Z,97.90
2023-05-05T03:45:04.534Z,98.20
2023-05-05T03:47:31.548Z,98.20
2023-05-05T03:49:58.369Z,98.00
2023-05-05T03:52:25.551Z,98.30
2023-05-05T03:54:54.991Z,98.20
2023-05-05T03:57:23.983Z,98.40
2023-05-05T03:59:51.029Z,98.60
2023-05-05T04:02:18.890Z,98.60
2023-05-05T04:04:48.749Z,98.70
2023-05-05T04:07:15.574Z,98.70
2023-05-05T04:09:44.607Z,98.80
2023-05-05T04:12:15.463Z,98.80
2023-05-05T04:14:42.284Z,99.00
2023-05-05T04:17:10.830Z,99.10
2023-05-05T04:19:38.097Z,99.20
2023-05-05T04:22:05.864Z,99.10
2023-05-05T04:24:32.848Z,99.30
2023-05-05T04:26:59.758Z,99.40
2023-05-05T04:29:30.870Z,99.30
2023-05-05T04:31:58.213Z,99.30
2023-05-05T04:34:24.981Z,99.40
2023-05-05T04:36:52.132Z,99.50
2023-05-05T04:39:19.977Z,99.40
2023-05-05T04:41:46.963Z,99.40
2023-05-05T04:44:14.319Z,99.50
2023-05-05T04:46:44.130Z,99.60
2023-05-05T04:49:13.637Z,99.80
2023-05-05T04:51:43.503Z,99.70
2023-05-05T04:54:10.448Z,99.60
2023-05-05T04:56:37.318Z,99.90
2023-05-05T04:59:04.135Z,99.70
2023-05-05T05:01:31.729Z,99.70
2023-05-05T05:04:01.648Z,99.70
2023-05-05T05:06:29.319Z,99.90
2023-05-05T05:08:56.920Z,99.80
2023-05-05T05:11:23.735Z,99.90
2023-05-05T05:13:53.000Z,99.40
2023-05-05T05:16:22.267Z,99.50
2023-05-05T05:18:49.080Z,99.30
2023-05-05T05:21:16.210Z,99.60
2023-05-05T05:23:43.760Z,99.40
2023-05-05T05:26:11.044Z,99.90
2023-05-05T05:28:41.622Z,99.20
2023-05-05T05:31:08.398Z,99.00
2023-05-05T05:33:35.121Z,99.60
2023-05-05T05:36:02.234Z,99.00
2023-05-05T05:38:31.383Z,99.30
2023-05-05T05:41:04.859Z,99.00
2023-05-05T05:43:31.748Z,98.80
2023-05-05T05:45:58.580Z,98.50
2023-05-05T05:48:29.452Z,98.70
2023-05-05T05:50:57.995Z,98.80
2023-05-05T05:53:25.956Z,98.60
2023-05-05T05:55:54.098Z,98.50
2023-05-05T05:58:25.548Z,98.40
2023-05-05T06:00:52.705Z,98.40
2023-05-05T06:03:21.955Z,98.20
2023-05-05T06:05:50.399Z,97.90
2023-05-05T06:08:18.293Z,97.70
2023-05-05T06:10:50.441Z,98.00
2023-05-05T06:13:21.916Z,98.20
2023-05-05T06:15:52.221Z,98.20
2023-05-05T06:18:20.361Z,97.70
2023-05-05T06:20:50.597Z,97.60
2023-05-05T06:23:21.269Z,97.30
2023-05-05T06:25:56.330Z,97.10
2023-05-05T06:28:28.001Z,96.80
2023-05-05T06:30:57.237Z,96.40
2023-05-05T06:33:28.792Z,96.60
2023-05-05T06:35:55.817Z,96.30
2023-05-05T06:38:22.764Z,96.20
2023-05-05T06:40:49.970Z,96.10
2023-05-05T06:43:19.457Z,96.60
2023-05-05T06:45:53.297Z,95.70
2023-05-05T06:48:20.150Z,96.00
2023-05-05T06:50:49.233Z,96.00
2023-05-05T06:53:16.205Z,95.10
2023-05-05T06:55:45.884Z,94.80
2023-05-05T06:58:15.306Z,95.00
2023-05-05T07:00:42.770Z,94.80
2023-05-05T07:03:12.008Z,94.80
2023-05-05T07:05:39.122Z,94.90
2023-05-05T07:08:06.821Z,95.40
2023-05-05T07:10:33.705Z,94.90
2023-05-05T07:13:00.730Z,95.10
2023-05-05T07:15:30.679Z,94.80
2023-05-05T07:17:59.877Z,94.70
2023-05-05T07:20:28.345Z,95.40
2023-05-05T07:22:56.897Z,94.80
2023-05-05T07:25:23.977Z,95.20
2023-05-05T07:27:51.170Z,94.70
2023-05-05T07:30:19.115Z,94.30
2023-05-05T07:32:46.742Z,94.40
2023-05-05T07:35:14.005Z,94.90
2023-05-05T07:37:43.119Z,95.10
2023-05-05T07:40:10.784Z,94.60
2023-05-05T07:42:45.986Z,93.60
2023-05-05T07:45:12.988Z,93.50
2023-05-05T07:47:40.612Z,93.70
2023-05-05T07:50:10.823Z,94.20
2023-05-05T07:52:48.360Z,94.00
2023-05-05T07:55:19.013Z,93.40
2023-05-05T07:57:46.375Z,93.20
2023-05-05T08:00:14.320Z,93.60
2023-05-05T08:02:41.648Z,93.40
2023-05-05T08:05:09.687Z,93.30
2023-05-05T08:07:43.581Z,93.20
2023-05-05T08:10:12.428Z,93.30
2023-05-05T08:12:42.100Z,92.80
2023-05-05T08:15:10.253Z,93.10
2023-05-05T08:17:59.970Z,92.30
2023-05-05T08:20:29.053Z,92.90
2023-05-05T08:23:00.932Z,92.60
2023-05-05T08:25:32.764Z,91.10
2023-05-05T08:28:02.232Z,90.40
2023-05-05T08:30:29.437Z,90.20
2023-05-05T08:32:56.765Z,87.90
2023-05-05T08:35:24.436Z,83.60
2023-05-05T08:37:51.941Z,81.80
2023-05-05T08:40:21.255Z,79.90
2023-05-05T08:42:48.440Z,78.80
2023-05-05T08:45:18.213Z,76.20
2023-05-05T08:47:45.617Z,75.60
2023-05-05T08:50:12.946Z,74.90
2023-05-05T08:52:44.386Z,76.40
2023-05-05T08:55:37.197Z,75.30
2023-05-05T08:58:04.752Z,74.40
2023-05-05T09:00:32.338Z,71.50
2023-05-05T09:03:00.450Z,71.00
2023-05-05T09:05:27.524Z,72.50
2023-05-05T09:07:54.920Z,69.50
2023-05-05T09:10:22.146Z,70.50
2023-05-05T09:12:51.131Z,70.00
2023-05-05T09:15:18.226Z,68.80
2023-05-05T09:17:47.566Z,67.00
2023-05-05T09:20:18.378Z,67.60
2023-05-05T09:22:47.536Z,66.90
2023-05-05T09:25:18.797Z,70.30
2023-05-05T09:27:48.211Z,66.80
2023-05-05T09:30:23.977Z,67.30
2023-05-05T09:32:56.868Z,66.10
2023-05-05T09:35:26.545Z,68.30
2023-05-05T09:37:56.692Z,68.30
2023-05-05T09:40:23.870Z,67.00
2023-05-05T09:43:01.764Z,69.10
2023-05-05T09:45:31.101Z,68.80
2023-05-05T09:48:00.308Z,67.10
2023-05-05T09:50:30.757Z,68.60
2023-05-05T09:52:59.863Z,68.40
2023-05-05T09:55:27.045Z,70.10
2023-05-05T09:58:27.202Z,70.00
2023-05-05T10:00:56.038Z,71.90
2023-05-05T10:03:24.504Z,72.10
2023-05-05T10:05:57.895Z,73.00
2023-05-05T10:08:34.432Z,71.70
2023-05-05T10:11:06.473Z,71.90
2023-05-05T10:13:42.085Z,72.50
2023-05-05T10:17:20.097Z,72.00
2023-05-05T10:19:47.737Z,72.70
2023-05-05T10:22:14.811Z,73.00
2023-05-05T10:24:44.234Z,74.20
2023-05-05T10:31:25.820Z,72.70
2023-05-05T10:34:00.467Z,73.10
2023-05-05T10:36:31.695Z,74.00
2023-05-05T10:39:00.202Z,74.80
2023-05-05T10:41:31.397Z,73.30
2023-05-05T10:44:00.920Z,74.00
2023-05-05T10:46:33.480Z,72.60
2023-05-05T10:49:20.353Z,73.00
2023-05-05T10:51:55.893Z,73.60
2023-05-05T10:54:38.259Z,74.40
2023-05-05T10:57:09.727Z,74.50
2023-05-05T10:59:41.071Z,73.60
2023-05-05T11:02:28.073Z,77.00
2023-05-05T11:05:15.421Z,75.80
2023-05-05T11:07:44.099Z,76.70
2023-05-05T11:10:13.077Z,74.50
2023-05-05T11:12:52.245Z,72.60
2023-05-05T11:15:28.872Z,72.50
2023-05-05T11:18:06.792Z,73.10
2023-05-05T11:20:40.188Z,72.20
2023-05-05T11:23:07.348Z,73.10
2023-05-05T11:25:37.636Z,73.80
2023-05-05T11:28:10.191Z,73.80
2023-05-05T11:30:58.069Z,72.70
2023-05-05T11:33:40.497Z,72.00
2023-05-05T11:36:12.415Z,73.30
2023-05-05T11:38:39.551Z,73.40
2023-05-05T11:41:12.901Z,72.30
2023-05-05T11:43:43.572Z,72.40
2023-05-05T11:46:16.968Z,72.00
2023-05-05T11:48:52.916Z,73.50
2023-05-05T11:51:20.357Z,73.60
2023-05-05T11:53:48.700Z,73.30
2023-05-05T11:56:21.780Z,73.30
2023-05-05T11:58:49.764Z,72.40
2023-05-05T12:01:19.514Z,74.10
2023-05-05T12:03:46.692Z,72.20
2023-05-05T12:06:13.872Z,71.90
2023-05-05T12:08:43.965Z,72.10
2023-05-05T12:11:13.732Z,71.80
2023-05-05T12:13:41.633Z,72.60
2023-05-05T12:16:13.502Z,73.10
2023-05-05T12:18:41.167Z,71.80
2023-05-05T12:21:20.804Z,71.00
2023-05-05T12:23:47.957Z,73.00
2023-05-05T12:26:41.253Z,72.00
2023-05-05T12:29:08.430Z,73.30
2023-05-05T12:31:41.871Z,72.00
2023-05-05T12:34:11.029Z,72.90
2023-05-05T12:36:38.820Z,74.10
2023-05-05T12:39:06.203Z,72.50
2023-05-05T12:41:34.263Z,72.90
2023-05-05T12:44:03.169Z,72.30
2023-05-05T12:46:32.404Z,72.80
2023-05-05T12:49:06.068Z,72.10
2023-05-05T12:51:37.157Z,72.60
2023-05-05T12:54:08.334Z,72.00
2023-05-05T12:56:46.406Z,74.00
2023-05-05T12:59:22.573Z,72.50
2023-05-05T13:01:50.208Z,71.30
2023-05-05T13:04:18.143Z,71.80
2023-05-05T13:06:46.924Z,73.30
2023-05-05T13:09:28.144Z,72.70
2023-05-05T13:11:57.875Z,72.20
2023-05-05T13:14:26.873Z,72.50
2023-05-05T13:16:53.994Z,72.50
2023-05-05T13:19:21.095Z,73.40
2023-05-05T13:21:48.120Z,72.70
2023-05-05T13:24:25.927Z,72.50
2023-05-05T13:26:56.581Z,73.80
2023-05-05T13:29:30.440Z,74.20
2023-05-05T13:31:58.584Z,74.70
2023-05-05T13:34:25.992Z,75.30
2023-05-05T13:36:55.320Z,74.50
2023-05-05T13:39:22.326Z,75.20
2023-05-05T13:41:49.326Z,74.50
2023-05-05T13:44:18.596Z,75.00
2023-05-05T13:46:45.796Z,74.60
2023-05-05T13:49:14.759Z,74.20
2023-05-05T13:51:41.854Z,70.50
2023-05-05T13:54:14.405Z,68.30
2023-05-05T13:56:41.654Z,66.10
2023-05-05T13:59:10.717Z,66.70
2023-05-05T14:01:37.996Z,61.20
2023-05-05T14:04:07.516Z,58.60
2023-05-05T14:06:36.974Z,58.60
2023-05-05T14:09:05.984Z,57.00
2023-05-05T14:11:33.238Z,55.40
2023-05-05T14:14:00.181Z,55.30
2023-05-05T14:16:27.121Z,54.80
2023-05-05T14:18:54.114Z,54.20
2023-05-05T14:21:21.059Z,54.60
2023-05-05T14:23:47.931Z,54.50
2023-05-05T14:26:15.142Z,55.10
2023-05-05T14:28:42.255Z,56.30
2023-05-05T14:31:09.438Z,57.20
2023-05-05T14:33:38.832Z,58.00
2023-05-05T14:36:06.116Z,60.10
2023-05-05T14:38:33.012Z,60.70
2023-05-05T14:41:02.173Z,62.60
2023-05-05T14:43:29.151Z,65.10
2023-05-05T14:45:58.249Z,66.00
2023-05-05T14:48:28.169Z,66.30
2023-05-05T14:50:55.302Z,66.30
2023-05-05T14:53:24.518Z,67.10
2023-05-05T14:55:51.418Z,67.30
2023-05-05T14:58:22.247Z,67.40
2023-05-05T15:00:49.118Z,68.30
2023-05-05T15:03:16.092Z,67.30
2023-05-05T15:05:43.028Z,68.40
2023-05-05T15:08:12.473Z,68.00
2023-05-05T15:10:39.299Z,68.30
2023-05-05T15:13:09.121Z,65.70
2023-05-05T15:15:36.108Z,66.40
2023-05-05T15:18:03.092Z,67.30
2023-05-05T15:20:32.486Z,69.00
2023-05-05T15:22:59.385Z,68.20
2023-05-05T15:25:26.270Z,68.90
2023-05-05T15:27:53.244Z,69.50
2023-05-05T15:30:20.274Z,70.70
2023-05-05T15:32:50.244Z,70.60
2023-05-05T15:35:17.154Z,70.90
2023-05-05T15:37:44.101Z,72.40
2023-05-05T15:40:11.683Z,72.10
2023-05-05T15:42:40.713Z,71.90
2023-05-05T15:45:13.133Z,71.80
2023-05-05T15:47:40.054Z,70.80
2023-05-05T15:50:09.738Z,71.40
2023-05-05T15:52:36.834Z,72.00
2023-05-05T15:55:04.200Z,72.80
2023-05-05T15:57:33.410Z,74.00
2023-05-05T16:00:02.462Z,73.30
2023-05-05T16:02:34.690Z,73.70
2023-05-05T16:05:02.061Z,74.60
2023-05-05T16:07:29.090Z,74.00
2023-05-05T16:09:56.920Z,74.40
2023-05-05T16:12:23.877Z,73.80
2023-05-05T16:14:50.912Z,74.40
2023-05-05T16:17:21.026Z,74.60
2023-05-05T16:19:51.443Z,75.70
2023-05-05T16:22:18.414Z,75.70
2023-05-05T16:24:45.314Z,75.30
2023-05-05T16:27:12.264Z,76.80
2023-05-05T16:29:39.162Z,75.30
2023-05-05T16:32:08.500Z,75.30
2023-05-05T16:34:35.450Z,75.70
2023-05-05T16:37:02.433Z,77.70
2023-05-05T16:39:33.017Z,77.50
2023-05-05T16:42:02.833Z,76.70
2023-05-05T16:44:31.903Z,77.10
2023-05-05T16:46:58.796Z,78.00
2023-05-05T16:49:30.366Z,77.60
2023-05-05T16:51:57.242Z,77.20
2023-05-05T16:54:26.207Z,79.20
2023-05-05T16:56:53.700Z,76.90
2023-05-05T16:59:20.716Z,77.60
2023-05-05T17:01:49.912Z,77.70
2023-05-05T17:04:17.057Z,77.70
2023-05-05T17:06:43.974Z,77.70
2023-05-05T17:09:10.862Z,78.40
2023-05-05T17:11:39.978Z,79.60
2023-05-05T17:14:06.954Z,79.00
2023-05-05T17:16:36.003Z,78.90
2023-05-05T17:19:02.901Z,79.10
2023-05-05T17:21:32.818Z,79.60
2023-05-05T17:23:59.775Z,79.30
2023-05-05T17:26:30.598Z,79.60
2023-05-05T17:28:57.460Z,80.20
2023-05-05T17:31:24.368Z,80.30
2023-05-05T17:33:51.273Z,80.60
2023-05-05T17:36:18.154Z,81.10
2023-05-05T17:38:47.310Z,80.50
2023-05-05T17:41:14.224Z,81.10
2023-05-05T17:43:41.117Z,81.50
2023-05-05T17:46:10.246Z,81.50
2023-05-05T17:48:37.149Z,81.90
2023-05-05T17:51:04.166Z,82.40
2023-05-05T17:53:31.099Z,82.20
2023-05-05T17:55:58.002Z,82.50
2023-05-05T17:58:25.045Z,83.10
2023-05-05T18:00:56.430Z,83.30
2023-05-05T18:03:25.697Z,84.30
2023-05-05T18:05:52.646Z,84.00
2023-05-05T18:08:19.826Z,84.70
2023-05-05T18:10:46.843Z,86.30
2023-05-05T18:13:16.402Z,86.20
2023-05-05T18:15:43.373Z,86.20
2023-05-05T18:18:12.527Z,87.50
2023-05-05T18:20:39.389Z,87.40
2023-05-05T18:23:06.294Z,88.20
2023-05-05T18:25:38.330Z,87.90
2023-05-05T18:28:05.575Z,88.40
2023-05-05T18:30:32.882Z,88.80
2023-05-05T18:33:00.198Z,89.10
2023-05-05T18:35:28.090Z,89.20
2023-05-05T18:37:55.129Z,89.60
2023-05-05T18:40:22.557Z,89.70
2023-05-05T18:42:49.700Z,89.70
2023-05-05T18:45:16.708Z,90.00
2023-05-05T18:47:43.774Z,90.00
2023-05-05T18:50:11.120Z,90.20
2023-05-05T18:52:40.590Z,90.30
2023-05-05T18:55:08.010Z,90.40
2023-05-05T18:57:35.308Z,90.40
2023-05-05T19:00:02.259Z,90.40
2023-05-05T19:02:29.302Z,90.60
2023-05-05T19:04:56.261Z,91.10
2023-05-05T19:07:34.266Z,90.90
2023-05-05T19:10:13.116Z,90.80
2023-05-05T19:12:44.475Z,91.00
2023-05-05T19:15:13.094Z,90.90
2023-05-05T19:17:42.153Z,90.90
2023-05-05T19:20:11.840Z,91.00
2023-05-05T19:22:38.822Z,90.90
2023-05-05T19:25:06.139Z,91.10
2023-05-05T19:27:33.938Z,92.20
2023-05-05T19:30:00.843Z,93.80
2023-05-05T19:32:27.768Z,93.20
2023-05-05T19:34:57.745Z,93.60
2023-05-05T19:37:25.135Z,93.40
2023-05-05T19:39:52.097Z,93.70
2023-05-05T19:42:19.069Z,93.00
2023-05-05T19:44:45.943Z,93.00
2023-05-05T19:47:12.905Z,92.80
2023-05-05T19:49:41.838Z,92.50
2023-05-05T19:52:08.781Z,92.30
2023-05-05T19:54:36.728Z,92.40
2023-05-05T19:57:03.686Z,92.30
2023-05-05T19:59:30.591Z,92.40
2023-05-05T20:01:57.723Z,92.60
2023-05-05T20:04:24.642Z,92.40
2023-05-05T20:06:57.304Z,92.20
2023-05-05T20:09:24.160Z,92.30
2023-05-05T20:11:51.116Z,92.30
2023-05-05T20:14:18.061Z,92.30
2023-05-05T20:16:45.292Z,92.20
2023-05-05T20:19:12.125Z,92.60
2023-05-05T20:21:39.150Z,92.30
2023-05-05T20:24:06.764Z,92.30
2023-05-05T20:26:33.668Z,92.20
2023-05-05T20:29:03.136Z,92.20
2023-05-05T20:31:30.237Z,92.20
2023-05-05T20:33:57.133Z,92.20
2023-05-05T20:36:26.601Z,92.50
2023-05-05T20:38:56.125Z,92.50
2023-05-05T20:41:25.688Z,92.30
2023-05-05T20:43:52.586Z,92.40
2023-05-05T20:46:19.508Z,92.40
2023-05-05T20:48:48.711Z,92.50
2023-05-05T20:51:15.696Z,92.50
2023-05-05T20:53:42.752Z,92.40
2023-05-05T20:56:09.689Z,92.60
2023-05-05T20:58:38.838Z,92.80
2023-05-05T21:01:06.164Z,92.70
2023-05-05T21:03:33.347Z,92.80
2023-05-05T21:06:01.448Z,92.70
2023-05-05T21:08:30.016Z,92.70
2023-05-05T21:10:56.918Z,92.70
2023-05-05T21:13:23.987Z,92.70
2023-05-05T21:15:52.928Z,93.20
2023-05-05T21:18:21.935Z,93.20
2023-05-05T21:20:48.810Z,93.10
2023-05-05T21:23:15.675Z,92.90
2023-05-05T21:25:42.686Z,93.10
2023-05-05T21:28:09.712Z,93.20
2023-05-05T21:30:39.121Z,93.30
2023-05-05T21:33:06.154Z,93.10
2023-05-05T21:35:35.498Z,93.40
2023-05-05T21:38:02.475Z,93.30
2023-05-05T21:40:29.440Z,93.50
2023-05-05T21:43:01.401Z,93.50
2023-05-05T21:45:28.566Z,93.50
2023-05-05T21:47:55.489Z,93.80
2023-05-05T21:50:23.176Z,93.80
2023-05-05T21:52:50.301Z,93.60
2023-05-05T21:55:17.251Z,93.70
2023-05-05T21:57:49.142Z,94.00
2023-05-05T22:00:18.651Z,94.40
2023-05-05T22:02:48.032Z,95.10
2023-05-05T22:05:15.091Z,95.70
2023-05-05T22:07:44.734Z,96.10
2023-05-05T22:10:11.838Z,96.40
2023-05-05T22:12:39.067Z,96.50
2023-05-05T22:15:06.772Z,97.60
2023-05-05T22:17:36.407Z,98.00
2023-05-05T22:20:08.684Z,98.30
2023-05-05T22:22:35.912Z,99.90
2023-05-05T22:25:02.848Z,99.60
2023-05-05T22:27:29.775Z,99.90
2023-05-05T22:29:56.740Z,99.90
2023-05-05T22:32:23.706Z,99.90
2023-05-05T22:34:50.838Z,99.90
2023-05-05T22:37:17.778Z,99.90
2023-05-05T22:39:44.618Z,99.90
2023-05-05T22:42:11.658Z,99.90
2023-05-05T22:44:41.082Z,99.90
2023-05-05T22:47:09.116Z,99.90
2023-05-05T22:49:36.138Z,99.90
2023-05-05T22:52:05.312Z,99.90
2023-05-05T22:54:32.193Z,99.90
2023-05-05T22:56:59.139Z,99.90
2023-05-05T22:59:25.926Z,99.90
2023-05-05T23:01:52.892Z,99.90
2023-05-05T23:04:20.350Z,99.90
2023-05-05T23:06:47.278Z,99.90
2023-05-05T23:09:16.550Z,99.90
2023-05-05T23:11:43.289Z,99.90
2023-05-05T23:14:10.484Z,99.90
2023-05-05T23:16:37.264Z,99.90
2023-05-05T23:19:06.335Z,99.90
2023-05-05T23:21:36.215Z,99.90
2023-05-05T23:24:09.050Z,99.90
2023-05-05T23:26:38.322Z,99.90
2023-05-05T23:29:05.538Z,99.90
2023-05-05T23:31:32.357Z,99.90
2023-05-05T23:33:59.111Z,99.90
2023-05-05T23:36:26.548Z,99.90
2023-05-05T23:38:58.194Z,99.90
2023-05-05T23:41:24.947Z,99.90
2023-05-05T23:43:51.683Z,99.90
2023-05-05T23:46:18.513Z,99.90
2023-05-05T23:48:45.330Z,99.90
2023-05-05T23:51:14.246Z,99.90
2023-05-05T23:53:41.136Z,99.90
2023-05-05T23:56:08.237Z,99.90
2023-05-05T23:58:35.045Z,99.90
